createdAt,value
2018-11-28T00:02:28.878Z,83.82
2018-11-28T00:05:33.728Z,83.83
2018-11-28T00:08:43.980Z,83.18
2018-11-28T00:11:48.605Z,83.55
2018-11-28T00:14:53.158Z,83.65
2018-11-28T00:17:57.735Z,84.27
2018-11-28T00:21:02.305Z,83.58
2018-11-28T00:24:07.017Z,83.52
2018-11-28T00:27:11.605Z,83.06
2018-11-28T00:30:17.380Z,83.25
2018-11-28T00:33:21.990Z,84.30
2018-11-28T00:36:26.514Z,85.07
2018-11-28T00:39:31.109Z,84.46
2018-11-28T00:42:35.676Z,84.39
2018-11-28T00:45:40.301Z,83.28
2018-11-28T00:48:44.852Z,83.53
2018-11-28T00:51:49.419Z,83.77
2018-11-28T00:54:54.026Z,83.90
2018-11-28T00:57:58.548Z,83.43
2018-11-28T01:01:03.138Z,82.67
2018-11-28T01:04:07.807Z,82.96
2018-11-28T01:07:12.367Z,82.81
2018-11-28T01:10:18.369Z,82.96
2018-11-28T01:13:22.909Z,83.26
2018-11-28T01:16:27.475Z,82.20
2018-11-28T01:19:32.022Z,81.91
2018-11-28T01:22:36.626Z,82.19
2018-11-28T01:25:41.241Z,81.83
2018-11-28T01:28:46.496Z,81.89
2018-11-28T01:31:50.446Z,82.08
2018-11-28T01:34:54.970Z,82.11
2018-11-28T01:37:59.675Z,81.80
2018-11-28T01:41:04.226Z,81.24
2018-11-28T01:44:08.753Z,81.48
2018-11-28T01:47:13.270Z,81.00
2018-11-28T01:50:21.834Z,81.27
2018-11-28T01:53:26.428Z,80.67
2018-11-28T01:56:31.161Z,80.46
2018-11-28T01:59:42.446Z,81.23
2018-11-28T02:02:47.758Z,81.11
2018-11-28T02:05:52.328Z,81.06
2018-11-28T02:08:56.897Z,81.53
2018-11-28T02:12:01.521Z,80.74
2018-11-28T02:15:07.334Z,81.20
2018-11-28T02:18:11.913Z,82.52
2018-11-28T02:21:16.561Z,81.63
2018-11-28T02:24:21.336Z,81.32
2018-11-28T02:27:25.848Z,81.94
2018-11-28T02:30:30.462Z,81.40
2018-11-28T02:33:34.989Z,80.82
2018-11-28T02:36:39.513Z,81.08
2018-11-28T02:39:44.122Z,81.41
2018-11-28T02:42:49.729Z,82.09
2018-11-28T02:46:05.194Z,80.78
2018-11-28T02:49:09.843Z,81.58
2018-11-28T02:52:14.374Z,80.86
2018-11-28T02:55:19.291Z,81.16
2018-11-28T02:58:23.870Z,82.17
2018-11-28T03:01:28.398Z,82.22
2018-11-28T03:04:33.522Z,81.55
2018-11-28T03:07:38.182Z,81.62
2018-11-28T03:10:42.724Z,82.20
2018-11-28T03:13:47.263Z,81.91
2018-11-28T03:16:51.838Z,82.12
2018-11-28T03:19:56.449Z,82.86
2018-11-28T03:23:00.970Z,81.96
2018-11-28T03:26:05.937Z,82.82
2018-11-28T03:29:10.502Z,82.68
2018-11-28T03:32:15.087Z,81.89
2018-11-28T03:35:19.665Z,82.12
2018-11-28T03:38:24.246Z,80.82
2018-11-28T03:41:28.777Z,81.61
2018-11-28T03:44:33.390Z,81.37
2018-11-28T03:47:38.040Z,81.84
2018-11-28T03:50:42.622Z,82.31
2018-11-28T03:53:47.146Z,81.41
2018-11-28T03:56:51.729Z,81.57
2018-11-28T03:59:56.257Z,81.94
2018-11-28T04:03:01.014Z,82.04
2018-11-28T04:06:06.717Z,82.69
2018-11-28T04:09:11.317Z,81.15
2018-11-28T04:12:15.915Z,81.84
2018-11-28T04:15:21.969Z,81.58
2018-11-28T04:18:26.966Z,81.36
2018-11-28T04:21:31.493Z,80.88
2018-11-28T04:24:35.999Z,80.77
2018-11-28T04:27:40.629Z,80.37
2018-11-28T04:30:45.159Z,79.59
2018-11-28T04:33:49.807Z,80.12
2018-11-28T04:36:54.344Z,79.83
2018-11-28T04:39:58.867Z,81.17
2018-11-28T04:43:03.421Z,81.21
2018-11-28T04:46:08.006Z,80.21
2018-11-28T04:49:12.515Z,79.93
2018-11-28T04:52:17.097Z,78.90
2018-11-28T04:55:21.870Z,79.52
2018-11-28T04:58:26.470Z,79.07
2018-11-28T05:01:30.989Z,78.83
2018-11-28T05:04:35.630Z,79.37
2018-11-28T05:07:40.817Z,79.59
2018-11-28T05:10:45.346Z,79.84
2018-11-28T05:13:49.914Z,80.65
2018-11-28T05:16:54.461Z,80.33
2018-11-28T05:19:58.994Z,79.92
2018-11-28T05:23:04.295Z,79.67
2018-11-28T05:26:08.816Z,80.08
2018-11-28T05:29:13.449Z,81.04
2018-11-28T05:32:17.996Z,80.23
2018-11-28T05:35:23.982Z,80.05
2018-11-28T05:38:28.545Z,79.36
2018-11-28T05:41:33.110Z,79.18
2018-11-28T05:44:37.735Z,78.91
2018-11-28T05:47:42.357Z,79.21
2018-11-28T05:50:46.913Z,79.51
2018-11-28T05:53:51.477Z,79.10
2018-11-28T05:56:56.050Z,77.86
2018-11-28T06:00:00.605Z,77.56
2018-11-28T06:03:06.146Z,77.63
2018-11-28T06:06:10.705Z,77.87
2018-11-28T06:09:15.248Z,78.69
2018-11-28T06:12:19.794Z,79.29
2018-11-28T06:15:24.315Z,79.06
2018-11-28T06:18:28.901Z,79.51
2018-11-28T06:21:33.470Z,79.70
2018-11-28T06:24:37.991Z,80.41
2018-11-28T06:27:42.537Z,80.32
2018-11-28T06:30:47.109Z,79.69
2018-11-28T06:33:51.642Z,80.10
2018-11-28T06:36:56.254Z,79.64
2018-11-28T06:40:00.803Z,79.59
2018-11-28T06:43:05.520Z,79.19
2018-11-28T06:46:10.086Z,78.70
2018-11-28T06:49:14.644Z,79.49
2018-11-28T06:52:19.196Z,78.76
2018-11-28T06:55:23.837Z,79.17
2018-11-28T06:58:28.454Z,78.95
2018-11-28T07:01:33.018Z,79.29
2018-11-28T07:04:37.550Z,79.69
2018-11-28T07:07:42.159Z,78.12
2018-11-28T07:10:48.798Z,78.60
2018-11-28T07:13:52.680Z,79.27
2018-11-28T07:16:57.277Z,79.66
2018-11-28T07:20:01.789Z,78.47
2018-11-28T07:23:06.988Z,79.91
2018-11-28T07:26:11.543Z,79.80
2018-11-28T07:29:16.074Z,80.03
2018-11-28T07:32:20.594Z,79.81
2018-11-28T07:35:25.223Z,77.92
2018-11-28T07:38:29.761Z,78.39
2018-11-28T07:41:34.309Z,78.16
2018-11-28T07:44:38.864Z,78.64
2018-11-28T07:47:43.460Z,78.03
2018-11-28T07:50:48.139Z,77.69
2018-11-28T07:53:52.857Z,77.87
2018-11-28T07:56:57.384Z,77.05
2018-11-28T08:00:02.015Z,77.04
2018-11-28T08:03:08.350Z,76.87
2018-11-28T08:06:12.976Z,75.73
2018-11-28T08:09:17.489Z,76.95
2018-11-28T08:12:22.108Z,77.05
2018-11-28T08:15:27.002Z,76.80
2018-11-28T08:18:31.424Z,77.61
2018-11-28T08:21:36.027Z,77.35
2018-11-28T08:24:40.722Z,76.18
2018-11-28T08:27:46.306Z,77.33
2018-11-28T08:30:50.863Z,77.95
2018-11-28T08:33:55.522Z,77.07
2018-11-28T08:37:00.995Z,75.28
2018-11-28T08:40:07.809Z,75.54
2018-11-28T08:43:12.376Z,75.81
2018-11-28T08:46:17.004Z,75.04
2018-11-28T08:49:21.570Z,75.86
2018-11-28T08:52:26.167Z,75.61
2018-11-28T08:55:30.845Z,75.87
2018-11-28T08:58:35.411Z,76.08
2018-11-28T09:01:40.031Z,76.59
2018-11-28T09:04:44.645Z,76.12
2018-11-28T09:07:49.350Z,76.46
2018-11-28T09:10:53.925Z,76.07
2018-11-28T09:14:04.243Z,77.12
2018-11-28T09:17:05.088Z,76.38
2018-11-28T09:20:12.880Z,77.24
2018-11-28T09:23:17.781Z,77.25
2018-11-28T09:26:22.309Z,76.82
2018-11-28T09:29:26.896Z,78.35
2018-11-28T09:32:31.501Z,77.58
2018-11-28T09:35:36.072Z,77.27
2018-11-28T09:38:40.666Z,75.63
2018-11-28T09:41:45.230Z,74.25
2018-11-28T09:44:49.852Z,73.08
2018-11-28T09:47:54.399Z,74.31
2018-11-28T09:50:59.074Z,74.01
2018-11-28T09:54:03.612Z,75.46
2018-11-28T09:57:08.193Z,75.53
2018-11-28T10:00:17.412Z,75.74
2018-11-28T10:03:22.103Z,76.03
2018-11-28T10:06:26.621Z,75.98
2018-11-28T10:09:31.234Z,75.47
2018-11-28T10:12:35.834Z,76.47
2018-11-28T10:15:40.369Z,75.81
2018-11-28T10:18:44.949Z,76.88
2018-11-28T10:21:49.458Z,77.33
2018-11-28T10:24:54.093Z,76.45
2018-11-28T10:28:03.081Z,76.58
2018-11-28T10:31:07.644Z,73.94
2018-11-28T10:34:12.169Z,74.06
2018-11-28T10:37:16.755Z,73.10
2018-11-28T10:40:22.384Z,73.18
2018-11-28T10:43:27.003Z,73.21
2018-11-28T10:46:31.564Z,73.90
2018-11-28T10:49:36.101Z,73.34
2018-11-28T10:52:40.770Z,73.59
2018-11-28T10:55:45.317Z,73.24
2018-11-28T10:58:49.943Z,72.93
2018-11-28T11:01:59.501Z,72.54
2018-11-28T11:05:09.509Z,71.71
2018-11-28T11:08:19.280Z,72.67
2018-11-28T11:11:25.367Z,71.17
2018-11-28T11:14:35.348Z,73.30
2018-11-28T11:17:39.949Z,72.76
2018-11-28T11:20:44.578Z,70.92
2018-11-28T11:23:49.113Z,72.31
2018-11-28T11:26:53.662Z,71.91
2018-11-28T11:29:58.306Z,72.68
2018-11-28T11:33:02.882Z,73.57
2018-11-28T11:36:07.761Z,71.79
2018-11-28T11:39:12.328Z,71.75
2018-11-28T11:42:16.837Z,72.10
2018-11-28T11:45:21.442Z,71.16
2018-11-28T11:48:26.026Z,71.79
2018-11-28T11:51:30.623Z,71.82
2018-11-28T11:54:35.175Z,72.30
2018-11-28T11:57:39.817Z,73.26
2018-11-28T12:00:45.893Z,73.30
2018-11-28T12:03:50.461Z,73.55
2018-11-28T12:06:55.066Z,73.91
2018-11-28T12:09:59.917Z,73.36
2018-11-28T12:13:04.536Z,74.20
2018-11-28T12:16:09.181Z,72.16
2018-11-28T12:19:13.841Z,73.98
2018-11-28T12:22:18.366Z,73.05
2018-11-28T12:25:22.968Z,71.86
2018-11-28T12:28:27.492Z,72.45
2018-11-28T12:31:32.060Z,71.49
2018-11-28T12:34:36.702Z,73.38
2018-11-28T12:37:41.966Z,72.77
2018-11-28T12:40:46.598Z,72.59
2018-11-28T12:43:51.186Z,73.32
2018-11-28T12:46:55.851Z,74.04
2018-11-28T12:50:00.465Z,73.61
2018-11-28T12:53:05.418Z,73.76
2018-11-28T12:56:09.966Z,73.23
2018-11-28T12:59:14.476Z,73.96
2018-11-28T13:02:19.045Z,73.05
2018-11-28T13:05:24.750Z,73.09
2018-11-28T13:08:29.292Z,73.21
2018-11-28T13:11:33.792Z,74.47
2018-11-28T13:14:38.857Z,72.17
2018-11-28T13:17:43.478Z,72.76
2018-11-28T13:20:48.006Z,72.94
2018-11-28T13:23:52.537Z,74.22
2018-11-28T13:26:57.054Z,73.18
2018-11-28T13:30:01.602Z,73.56
2018-11-28T13:33:09.638Z,72.25
2018-11-28T13:36:14.161Z,73.34
2018-11-28T13:39:18.784Z,71.89
2018-11-28T13:42:23.550Z,73.06
2018-11-28T13:45:29.667Z,71.91
2018-11-28T13:48:34.320Z,70.85
2018-11-28T13:51:38.841Z,71.75
2018-11-28T13:55:37.689Z,71.02
2018-11-28T13:57:48.019Z,72.19
2018-11-28T14:00:52.552Z,71.28
2018-11-28T14:03:57.133Z,71.40
2018-11-28T14:07:01.705Z,71.81
2018-11-28T14:10:10.844Z,72.17
2018-11-28T14:13:15.478Z,73.27
2018-11-28T14:16:20.009Z,72.17
2018-11-28T14:19:24.622Z,71.02
2018-11-28T14:22:29.157Z,72.37
2018-11-28T14:25:33.980Z,72.05
2018-11-28T14:28:38.545Z,72.28
2018-11-28T14:31:43.216Z,71.53
2018-11-28T14:34:47.753Z,71.92
2018-11-28T14:37:52.427Z,71.01
2018-11-28T14:40:56.966Z,72.71
2018-11-28T14:44:01.523Z,71.39
2018-11-28T14:47:06.453Z,71.95
2018-11-28T14:50:14.077Z,71.78
2018-11-28T14:53:18.678Z,73.81
2018-11-28T14:56:23.314Z,73.67
2018-11-28T14:59:28.041Z,73.57
2018-11-28T15:02:32.573Z,72.96
2018-11-28T15:05:48.253Z,73.86
2018-11-28T15:09:55.638Z,75.42
2018-11-28T15:13:00.181Z,74.21
2018-11-28T15:16:04.869Z,74.30
2018-11-28T15:19:09.444Z,74.25
2018-11-28T15:22:14.053Z,73.80
2018-11-28T15:25:18.577Z,74.90
2018-11-28T16:55:53.022Z,76.01
2018-11-28T18:11:06.987Z,76.27
2018-11-28T18:14:11.620Z,75.05
2018-11-28T18:17:16.222Z,76.87
2018-11-28T18:20:20.778Z,75.78
2018-11-28T18:23:25.389Z,74.37
2018-11-28T18:26:30.617Z,75.89
2018-11-28T18:29:35.248Z,75.29
2018-11-28T18:32:39.823Z,74.49
2018-11-28T18:35:44.474Z,74.24
2018-11-28T18:38:49.349Z,74.55
2018-11-28T18:41:53.966Z,75.35
2018-11-28T18:44:58.555Z,75.75
2018-11-28T18:48:03.285Z,74.70
2018-11-28T18:51:08.062Z,74.70
2018-11-28T18:54:12.608Z,74.71
2018-11-28T18:57:17.218Z,74.76
2018-11-28T19:00:23.165Z,74.07
2018-11-28T19:03:27.901Z,74.90
2018-11-28T19:06:32.474Z,73.95
2018-11-28T19:09:42.247Z,73.10
2018-11-28T19:12:46.840Z,74.25
2018-11-28T19:15:51.433Z,73.56
2018-11-28T19:18:56.122Z,72.55
2018-11-28T19:22:01.228Z,73.01
2018-11-28T19:25:07.816Z,73.53
2018-11-28T19:28:12.378Z,72.02
2018-11-28T19:31:17.006Z,71.47
2018-11-28T19:34:21.831Z,72.79
2018-11-28T19:37:26.482Z,71.67
2018-11-28T19:41:07.695Z,72.68
2018-11-28T19:44:12.278Z,71.44
2018-11-28T19:47:16.888Z,70.84
2018-11-28T19:50:25.273Z,72.02
2018-11-28T19:53:30.670Z,70.82
2018-11-28T19:56:35.226Z,70.52
2018-11-28T19:59:40.060Z,71.16
2018-11-28T20:02:45.047Z,70.61
2018-11-28T20:05:49.719Z,71.22
2018-11-28T20:08:54.519Z,70.66
2018-11-28T20:11:59.109Z,70.38
2018-11-28T20:15:03.869Z,71.55
2018-11-28T20:18:08.823Z,70.52
2018-11-28T20:24:18.032Z,70.68
2018-11-28T20:27:23.041Z,71.30
2018-11-28T20:30:32.159Z,71.59
2018-11-28T20:33:36.690Z,72.62
2018-11-28T20:36:41.557Z,73.23
2018-11-28T20:39:46.292Z,73.93
2018-11-28T20:42:52.926Z,73.72
2018-11-28T20:45:57.528Z,73.22
2018-11-28T20:49:02.291Z,73.65
2018-11-28T20:52:07.758Z,72.84
2018-11-28T20:55:12.499Z,73.97
2018-11-28T20:58:17.201Z,73.65
2018-11-28T21:01:22.246Z,73.25
2018-11-28T21:04:26.865Z,73.66
2018-11-28T21:07:31.745Z,73.72
2018-11-28T21:10:37.199Z,73.92
2018-11-28T21:13:41.781Z,74.00
2018-11-28T21:16:46.316Z,75.35
2018-11-28T21:19:50.921Z,73.37
2018-11-28T21:22:58.613Z,75.09
2018-11-28T21:26:03.599Z,72.34
2018-11-28T21:29:08.251Z,73.18
2018-11-28T21:32:13.152Z,73.62
2018-11-28T21:35:21.165Z,73.62
2018-11-28T21:38:25.689Z,72.95
2018-11-28T21:41:30.677Z,72.38
2018-11-28T21:44:35.669Z,71.69
2018-11-28T21:47:40.406Z,71.23
2018-11-28T21:50:44.994Z,70.97
2018-11-28T21:53:49.550Z,70.66
2018-11-28T21:56:54.273Z,70.95
2018-11-28T21:59:58.813Z,71.23
2018-11-28T22:03:03.394Z,71.39
2018-11-28T22:06:08.024Z,72.47
2018-11-28T22:09:12.707Z,72.30
2018-11-28T22:12:17.601Z,72.60
2018-11-28T22:15:22.210Z,72.68
2018-11-28T22:18:26.781Z,70.69
2018-11-28T22:21:31.304Z,70.29
2018-11-28T22:24:35.840Z,69.47
2018-11-28T22:27:40.515Z,70.75
2018-11-28T22:30:45.451Z,71.74
2018-11-28T22:33:50.053Z,71.25
2018-11-28T22:36:54.691Z,70.07
2018-11-28T22:39:59.225Z,69.59
2018-11-28T22:43:03.942Z,67.99
2018-11-28T22:46:08.641Z,69.56
2018-11-28T22:49:13.172Z,70.27
2018-11-28T22:52:17.694Z,71.07
2018-11-28T22:55:22.240Z,69.89
2018-11-28T22:58:26.803Z,69.92
2018-11-28T23:01:44.197Z,69.41
2018-11-28T23:04:49.352Z,69.09
2018-11-28T23:07:53.931Z,68.29
2018-11-28T23:10:58.508Z,67.95
2018-11-28T23:14:03.155Z,67.88
2018-11-28T23:17:07.705Z,65.48
2018-11-28T23:20:12.322Z,66.13
2018-11-28T23:23:16.960Z,64.89
2018-11-28T23:26:21.515Z,66.83
2018-11-28T23:29:26.108Z,67.45
2018-11-28T23:32:30.717Z,67.33
2018-11-28T23:35:35.306Z,66.99
2018-11-28T23:38:39.827Z,67.00
2018-11-28T23:41:44.392Z,67.38
2018-11-28T23:44:48.977Z,65.83
2018-11-28T23:47:53.624Z,65.98
2018-11-28T23:50:58.150Z,65.21
2018-11-28T23:54:02.683Z,64.29
2018-11-28T23:57:07.537Z,65.11
